Time;durP1;ratioP1;P1;durP2;ratioP2;P2;SDS_P1;SDS_P2;PMS_P1;PMS_P2;Temp;Humidity;BMP_temperature;BMP_pressure;BME280_temperature;BME280_humidity;BME280_pressure;Samples;Min_cycle;Max_cycle;Signal;HPM_P1;HPM_P2
2021/07/26 00:02:18;;;;;;;6.07;5.57;;;19.50;99.90;;;;;;5053315;28;20622;-69
2021/07/26 00:04:45;;;;;;;5.50;5.00;;;19.50;99.90;;;;;;5052229;28;20595;-69
2021/07/26 00:07:11;;;;;;;12.27;5.40;;;19.50;99.90;;;;;;5053272;28;20605;-69
2021/07/26 00:09:37;;;;;;;5.93;5.13;;;19.50;99.90;;;;;;5053388;28;21185;-69
2021/07/26 00:12:05;;;;;;;5.90;5.10;;;19.50;99.90;;;;;;5053324;28;20651;-69
2021/07/26 00:14:32;;;;;;;5.73;4.50;;;19.40;99.90;;;;;;5053209;28;20587;-68
2021/07/26 00:16:59;;;;;;;6.50;4.80;;;19.40;99.90;;;;;;5052065;28;20978;-68
2021/07/26 00:19:25;;;;;;;5.40;5.00;;;19.30;99.90;;;;;;5053372;28;20599;-68
2021/07/26 00:21:51;;;;;;;6.93;5.10;;;19.30;99.90;;;;;;5053113;28;20597;-69
2021/07/26 00:24:18;;;;;;;5.50;4.97;;;19.40;99.90;;;;;;5053560;28;21076;-69
2021/07/26 00:26:45;;;;;;;6.60;5.07;;;19.30;99.90;;;;;;5053191;28;20604;-69
2021/07/26 00:29:12;;;;;;;5.83;5.20;;;19.20;99.90;;;;;;5053131;28;20627;-69
2021/07/26 00:31:38;;;;;;;5.63;5.20;;;19.20;99.90;;;;;;5053234;28;20658;-69
2021/07/26 00:34:07;;;;;;;4.73;4.30;;;19.20;99.90;;;;;;5053143;28;20599;-69
2021/07/26 00:36:42;;;;;;;7.27;4.53;;;19.20;99.90;;;;;;5053202;28;20630;-69
2021/07/26 00:39:10;;;;;;;5.43;4.93;;;19.30;99.90;;;;;;5053074;28;20638;-68
2021/07/26 00:41:38;;;;;;;4.43;4.13;;;19.30;99.90;;;;;;5053277;28;20599;-68
2021/07/26 00:44:05;;;;;;;6.07;4.93;;;19.30;99.90;;;;;;5053364;28;20955;-68
2021/07/26 00:46:31;;;;;;;5.10;4.70;;;19.30;99.90;;;;;;5053072;28;21142;-68
2021/07/26 00:48:58;;;;;;;5.40;5.00;;;19.30;99.90;;;;;;5052771;28;21048;-68
2021/07/26 00:51:24;;;;;;;5.70;4.47;;;19.30;99.90;;;;;;5053053;28;21199;-68
2021/07/26 00:53:52;;;;;;;5.23;4.50;;;19.20;99.90;;;;;;5052775;28;20606;-68
2021/07/26 00:56:18;;;;;;;5.27;4.87;;;19.20;99.90;;;;;;5053053;28;21152;-68
2021/07/26 00:58:45;;;;;;;4.93;4.53;;;19.30;99.90;;;;;;5052985;28;20608;-68
2021/07/26 01:01:13;;;;;;;5.67;4.60;;;19.20;99.90;;;;;;5052935;28;20619;-69
2021/07/26 01:03:43;;;;;;;5.20;4.70;;;19.20;99.90;;;;;;5052976;28;21161;-68
2021/07/26 01:06:12;;;;;;;5.03;4.33;;;19.20;99.90;;;;;;5053168;28;20641;-68
2021/07/26 01:08:38;;;;;;;5.90;5.03;;;19.20;99.90;;;;;;5052871;28;20627;-68
2021/07/26 01:11:05;;;;;;;4.83;4.43;;;19.20;99.90;;;;;;5053296;28;20639;-69
2021/07/26 01:13:32;;;;;;;4.90;4.27;;;19.20;99.90;;;;;;5056370;28;20615;-69
2021/07/26 01:15:59;;;;;;;4.53;4.23;;;19.20;99.90;;;;;;5056973;28;21180;-69
2021/07/26 01:18:30;;;;;;;6.50;5.43;;;19.10;99.90;;;;;;5056324;28;20607;-69
2021/07/26 01:20:57;;;;;;;5.13;4.63;;;19.10;99.90;;;;;;5056535;28;20714;-69
2021/07/26 01:23:25;;;;;;;5.63;5.00;;;19.00;99.90;;;;;;5056311;28;20607;-69
2021/07/26 01:25:52;;;;;;;4.73;4.30;;;19.00;99.90;;;;;;5056172;28;20633;-69
2021/07/26 01:28:20;;;;;;;6.00;5.50;;;19.00;99.90;;;;;;5056244;28;20661;-69
2021/07/26 01:30:48;;;;;;;4.93;4.40;;;19.00;99.90;;;;;;5056238;28;20619;-69
2021/07/26 01:33:17;;;;;;;5.17;4.67;;;19.00;99.90;;;;;;5056249;28;20629;-69
2021/07/26 01:35:43;;;;;;;5.20;4.70;;;19.00;99.90;;;;;;5056083;28;20614;-69
2021/07/26 01:38:10;;;;;;;5.33;4.83;;;18.90;99.90;;;;;;5056162;28;20607;-69
2021/07/26 01:40:39;;;;;;;5.10;4.67;;;18.90;99.90;;;;;;5055885;28;20630;-69
2021/07/26 01:43:09;;;;;;;4.80;4.40;;;18.90;99.90;;;;;;5054984;28;20960;-69
2021/07/26 01:45:37;;;;;;;6.63;5.20;;;18.90;99.90;;;;;;5055835;28;20599;-69
2021/07/26 01:48:23;;;;;;;6.07;5.57;;;18.80;99.90;;;;;;5055928;28;20619;-69
2021/07/26 01:51:01;;;;;;;5.40;4.90;;;18.80;99.90;;;;;;5055953;28;20575;-69
2021/07/26 01:53:30;;;;;;;6.03;4.67;;;18.80;99.90;;;;;;5055570;28;20602;-69
2021/07/26 01:55:57;;;;;;;5.90;5.40;;;18.80;99.90;;;;;;5055582;28;21010;-69
2021/07/26 01:58:25;;;;;;;5.73;5.23;;;18.70;99.90;;;;;;5055681;28;20618;-68
2021/07/26 02:00:51;;;;;;;5.37;4.40;;;18.80;99.90;;;;;;5055683;28;20615;-69
2021/07/26 02:03:18;;;;;;;5.67;5.17;;;18.70;99.90;;;;;;5055761;28;21156;-69
2021/07/26 02:05:44;;;;;;;5.33;4.93;;;18.70;99.90;;;;;;5055392;28;20606;-67
2021/07/26 02:08:10;;;;;;;5.67;5.03;;;18.70;99.90;;;;;;5055739;28;20669;-68
2021/07/26 02:10:36;;;;;;;7.00;5.03;;;18.80;99.90;;;;;;5055353;28;20587;-67
2021/07/26 02:13:03;;;;;;;6.03;5.53;;;18.70;99.90;;;;;;5055539;28;20653;-67
2021/07/26 02:15:29;;;;;;;6.43;5.83;;;18.70;99.90;;;;;;5055430;28;20729;-67
2021/07/26 02:17:55;;;;;;;6.10;5.47;;;18.70;99.90;;;;;;5055141;28;20619;-67
2021/07/26 02:20:22;;;;;;;6.60;6.10;;;18.70;99.90;;;;;;5055769;28;21126;-67
2021/07/26 02:22:48;;;;;;;6.80;5.73;;;18.60;99.90;;;;;;5054297;28;20599;-67
2021/07/26 02:25:17;;;;;;;11.30;5.60;;;18.60;99.90;;;;;;5055384;28;20629;-67
2021/07/26 02:27:44;;;;;;;6.27;5.67;;;18.50;99.90;;;;;;5055389;28;21165;-67
2021/07/26 02:30:11;;;;;;;6.33;5.83;;;18.50;99.90;;;;;;5054883;28;20623;-68
2021/07/26 02:32:37;;;;;;;6.80;6.10;;;18.40;99.90;;;;;;5055089;28;20665;-68
2021/07/26 02:35:04;;;;;;;6.20;5.60;;;18.40;99.90;;;;;;5054942;28;20984;-68
2021/07/26 02:37:30;;;;;;;6.80;6.20;;;18.50;99.90;;;;;;5055284;28;21145;-68
2021/07/26 02:39:57;;;;;;;7.23;5.87;;;18.50;99.90;;;;;;5054837;28;20626;-68
2021/07/26 02:42:23;;;;;;;6.60;6.00;;;18.40;99.90;;;;;;5054975;28;20630;-68
2021/07/26 02:44:49;;;;;;;6.73;6.13;;;18.40;99.90;;;;;;5054943;28;20625;-68
2021/07/26 02:47:16;;;;;;;6.73;6.20;;;18.20;99.90;;;;;;5054588;28;20599;-68
2021/07/26 02:49:42;;;;;;;6.33;5.80;;;18.40;99.90;;;;;;5054459;28;20717;-68
2021/07/26 02:52:09;;;;;;;7.13;6.20;;;18.30;99.90;;;;;;5054747;28;20654;-68
2021/07/26 02:54:35;;;;;;;7.73;6.50;;;18.30;99.90;;;;;;5055096;28;20653;-68
2021/07/26 02:57:01;;;;;;;6.83;6.23;;;18.30;99.90;;;;;;5053714;28;20638;-68
2021/07/26 02:59:28;;;;;;;7.10;6.50;;;18.30;99.90;;;;;;5054658;28;20602;-68
2021/07/26 03:01:54;;;;;;;7.00;6.30;;;18.30;99.90;;;;;;5039872;28;20623;-68
2021/07/26 03:04:20;;;;;;;6.60;6.00;;;18.20;99.90;;;;;;5053925;28;20615;-68
2021/07/26 03:06:47;;;;;;;6.67;6.07;;;18.20;99.90;;;;;;5053923;28;20634;-68
2021/07/26 03:09:13;;;;;;;7.83;6.70;;;18.20;99.90;;;;;;5053813;28;20607;-68
2021/07/26 03:11:39;;;;;;;11.53;6.57;;;18.10;99.90;;;;;;5053670;28;20657;-68
2021/07/26 03:14:05;;;;;;;7.73;7.03;;;18.00;99.90;;;;;;5053914;28;20627;-68
2021/07/26 03:16:32;;;;;;;7.30;6.60;;;18.00;99.90;;;;;;5053743;28;20967;-68
2021/07/26 03:18:58;;;;;;;6.90;6.20;;;18.00;99.90;;;;;;5053938;28;20610;-69
2021/07/26 03:21:24;;;;;;;7.83;7.13;;;18.00;99.90;;;;;;5054285;28;20623;-68
2021/07/26 03:23:52;;;;;;;7.63;6.93;;;17.90;99.90;;;;;;5054008;28;20595;-68
2021/07/26 03:26:18;;;;;;;8.07;7.37;;;17.80;99.90;;;;;;5054307;28;20614;-68
2021/07/26 03:28:45;;;;;;;7.90;7.20;;;17.80;99.90;;;;;;5054065;28;20606;-68
2021/07/26 03:31:11;;;;;;;8.93;7.60;;;17.80;99.90;;;;;;5053807;28;20623;-68
2021/07/26 03:33:38;;;;;;;9.13;8.23;;;17.70;99.90;;;;;;5053934;28;20619;-68
2021/07/26 03:36:04;;;;;;;7.73;7.00;;;17.80;99.90;;;;;;5053566;28;20619;-68
2021/07/26 03:38:31;;;;;;;8.63;7.80;;;17.80;99.90;;;;;;5053564;28;20603;-68
2021/07/26 03:40:57;;;;;;;8.23;7.53;;;17.80;99.90;;;;;;5053639;28;20607;-68
2021/07/26 03:43:23;;;;;;;8.27;7.50;;;17.80;99.90;;;;;;5053957;28;20622;-68
2021/07/26 03:45:50;;;;;;;8.60;7.63;;;17.80;99.90;;;;;;5053780;28;20619;-68
2021/07/26 03:48:16;;;;;;;8.33;7.53;;;17.80;99.90;;;;;;5053519;28;20646;-68
2021/07/26 03:50:42;;;;;;;8.60;7.33;;;17.80;99.90;;;;;;5053376;28;20630;-68
2021/07/26 03:53:09;;;;;;;10.07;9.07;;;17.80;99.90;;;;;;5053499;28;20724;-68
2021/07/26 03:55:37;;;;;;;9.60;8.60;;;17.70;99.90;;;;;;5053963;28;20624;-68
2021/07/26 03:58:03;;;;;;;10.47;9.37;;;17.70;99.90;;;;;;5053632;28;20645;-68
2021/07/26 04:00:30;;;;;;;12.17;8.83;;;17.70;99.90;;;;;;5053673;28;20611;-68
2021/07/26 04:05:36;;;;;;;10.07;8.90;;;17.70;99.90;;;;;;5053387;28;20583;-68
2021/07/26 04:08:12;;;;;;;10.90;9.53;;;17.70;99.90;;;;;;5053782;28;20976;-68
2021/07/26 04:10:41;;;;;;;10.37;9.27;;;17.70;99.90;;;;;;5053287;28;20559;-68
2021/07/26 04:13:08;;;;;;;8.80;8.00;;;17.70;99.90;;;;;;5053328;28;20988;-68
2021/07/26 04:15:34;;;;;;;10.50;9.40;;;17.70;99.90;;;;;;5053145;28;20623;-68
2021/07/26 04:18:00;;;;;;;10.07;9.00;;;17.80;99.90;;;;;;5053483;28;20587;-69
2021/07/26 04:20:27;;;;;;;12.87;9.17;;;17.80;99.90;;;;;;5053105;28;20619;-68
2021/07/26 04:22:53;;;;;;;12.13;9.30;;;17.70;99.90;;;;;;5053435;28;20615;-69
2021/07/26 04:25:19;;;;;;;8.53;7.73;;;17.70;99.90;;;;;;5053178;28;20641;-68
2021/07/26 04:27:45;;;;;;;8.60;7.83;;;17.70;99.90;;;;;;5053231;28;20966;-69
2021/07/26 04:30:12;;;;;;;9.90;8.67;;;17.70;99.90;;;;;;5053531;28;20619;-69
2021/07/26 04:32:40;;;;;;;9.20;8.30;;;17.70;99.90;;;;;;5053383;28;20650;-69
2021/07/26 04:35:07;;;;;;;9.50;8.50;;;17.70;99.90;;;;;;5053232;28;20888;-69
2021/07/26 04:37:34;;;;;;;9.33;7.40;;;17.70;99.90;;;;;;5053467;28;21278;-69
2021/07/26 04:40:00;;;;;;;9.60;8.60;;;17.70;99.90;;;;;;5053004;28;20630;-69
2021/07/26 04:42:26;;;;;;;9.90;8.70;;;17.80;99.90;;;;;;5052951;28;20608;-69
2021/07/26 04:44:53;;;;;;;14.10;9.03;;;17.80;99.90;;;;;;5053303;28;20595;-69
2021/07/26 04:47:19;;;;;;;8.40;7.70;;;17.90;99.90;;;;;;5055649;28;20626;-69
2021/07/26 04:49:45;;;;;;;9.13;8.30;;;17.90;99.90;;;;;;5056691;28;20634;-69
2021/07/26 04:52:13;;;;;;;9.00;8.27;;;17.80;99.90;;;;;;5056762;28;20623;-69
2021/07/26 04:54:39;;;;;;;8.03;7.40;;;17.90;99.90;;;;;;5056719;28;20623;-69
2021/07/26 04:57:05;;;;;;;13.37;9.13;;;17.90;99.90;;;;;;5056500;28;20618;-69
2021/07/26 04:59:32;;;;;;;8.50;7.13;;;18.00;99.90;;;;;;5057166;28;21129;-69
2021/07/26 05:01:58;;;;;;;8.23;7.20;;;18.00;99.90;;;;;;5056783;28;20588;-69
2021/07/26 05:04:24;;;;;;;11.90;7.90;;;18.00;99.90;;;;;;5056800;28;20622;-69
2021/07/26 05:06:51;;;;;;;8.33;7.53;;;17.90;99.90;;;;;;5056695;28;20981;-69
2021/07/26 05:09:17;;;;;;;10.60;7.60;;;17.90;99.90;;;;;;5056524;28;20748;-69
2021/07/26 05:11:43;;;;;;;7.93;7.17;;;18.00;99.90;;;;;;5056321;28;20631;-69
2021/07/26 05:14:11;;;;;;;8.60;7.80;;;18.10;99.90;;;;;;5056985;28;20623;-69
2021/07/26 05:16:37;;;;;;;8.30;7.50;;;18.10;99.90;;;;;;5056432;28;20614;-69
2021/07/26 05:19:03;;;;;;;8.40;7.70;;;18.10;99.90;;;;;;5056448;28;20619;-69
2021/07/26 05:21:33;;;;;;;11.03;8.20;;;18.10;99.90;;;;;;5056541;28;21026;-69
2021/07/26 05:24:00;;;;;;;8.57;7.73;;;18.30;99.90;;;;;;5056557;28;20618;-69
2021/07/26 05:26:28;;;;;;;9.30;8.37;;;18.20;99.90;;;;;;5056462;28;20602;-69
2021/07/26 05:28:54;;;;;;;8.80;7.90;;;18.20;99.90;;;;;;5056326;28;20615;-69
2021/07/26 05:31:21;;;;;;;9.60;7.90;;;18.20;99.90;;;;;;5056449;28;20715;-69
2021/07/26 05:33:48;;;;;;;9.00;8.20;;;18.40;99.90;;;;;;5055889;28;20737;-69
2021/07/26 05:36:14;;;;;;;9.47;8.40;;;18.30;99.90;;;;;;5041182;28;20988;-69
2021/07/26 05:38:41;;;;;;;10.00;9.00;;;18.40;99.90;;;;;;5055452;28;20615;-69
2021/07/26 05:41:08;;;;;;;8.90;8.00;;;18.40;99.90;;;;;;5055426;28;20618;-69
2021/07/26 05:43:35;;;;;;;10.03;9.10;;;18.40;99.90;;;;;;5055508;28;20623;-69
2021/07/26 05:46:01;;;;;;;8.80;7.90;;;18.50;99.90;;;;;;5055254;28;20623;-69
2021/07/26 05:48:27;;;;;;;9.63;8.20;;;18.70;99.90;;;;;;5055003;28;21237;-69
2021/07/26 05:50:54;;;;;;;8.90;8.10;;;18.70;99.90;;;;;;5055572;28;20998;-69
2021/07/26 05:53:20;;;;;;;9.37;7.97;;;18.80;99.90;;;;;;5055150;28;21016;-70
2021/07/26 05:55:46;;;;;;;10.73;8.27;;;18.90;99.90;;;;;;5055165;28;20611;-69
2021/07/26 05:58:12;;;;;;;10.00;9.00;;;18.90;99.90;;;;;;5053801;28;20610;-69
2021/07/26 06:00:44;;;;;;;7.73;6.93;;;19.00;99.90;;;;;;5055086;28;20623;-69
2021/07/26 06:03:10;;;;;;;7.60;6.93;;;19.10;99.90;;;;;;5055147;28;20627;-76
2021/07/26 06:05:39;;;;;;;6.83;6.23;;;19.30;99.90;;;;;;5055944;28;21009;-76
2021/07/26 06:08:05;;;;;;;6.80;6.10;;;19.50;99.90;;;;;;5056302;28;20591;-76
2021/07/26 06:10:31;;;;;;;5.77;5.23;;;19.70;99.90;;;;;;5055834;28;20587;-76
2021/07/26 06:12:58;;;;;;;6.23;5.53;;;19.70;99.90;;;;;;5055379;28;20634;-76
2021/07/26 06:15:24;;;;;;;7.63;6.77;;;19.90;99.90;;;;;;5039139;28;20711;-77
2021/07/26 06:17:50;;;;;;;7.00;6.40;;;20.00;99.90;;;;;;5047353;28;20604;-71
2021/07/26 06:20:16;;;;;;;6.60;5.97;;;20.00;99.90;;;;;;5048831;28;20622;-71
2021/07/26 06:22:43;;;;;;;7.53;5.63;;;19.90;99.90;;;;;;5054707;28;20615;-71
2021/07/26 06:25:10;;;;;;;5.87;5.33;;;20.00;99.90;;;;;;5055005;28;20638;-69
2021/07/26 06:27:36;;;;;;;7.07;6.37;;;20.00;99.90;;;;;;5054750;28;20630;-70
2021/07/26 06:30:03;;;;;;;5.87;5.27;;;20.30;99.90;;;;;;5055132;28;20634;-69
2021/07/26 06:32:31;;;;;;;5.63;5.23;;;20.10;99.90;;;;;;5051761;28;20662;-69
2021/07/26 06:34:58;;;;;;;6.10;5.23;;;20.00;99.90;;;;;;5044146;28;20623;-69
2021/07/26 06:37:25;;;;;;;5.53;5.00;;;20.10;99.90;;;;;;5049709;28;20642;-69
2021/07/26 06:39:51;;;;;;;4.97;4.47;;;20.20;99.90;;;;;;5045986;28;20643;-69
2021/07/26 06:42:20;;;;;;;6.00;5.50;;;20.40;99.90;;;;;;5040260;28;20631;-69
2021/07/26 06:44:47;;;;;;;6.87;5.20;;;20.70;99.90;;;;;;5055235;28;20627;-69
2021/07/26 06:47:13;;;;;;;6.63;4.87;;;20.90;99.90;;;;;;5055147;28;20619;-69
2021/07/26 06:49:39;;;;;;;10.00;4.67;;;21.00;99.90;;;;;;5054875;28;20770;-69
2021/07/26 06:52:06;;;;;;;5.20;4.70;;;21.00;99.90;;;;;;5054688;28;20635;-69
2021/07/26 06:54:32;;;;;;;4.27;3.93;;;21.10;99.90;;;;;;5055356;28;20607;-69
2021/07/26 06:56:58;;;;;;;6.60;4.73;;;21.10;99.90;;;;;;5054935;28;20619;-69
2021/07/26 06:59:25;;;;;;;4.90;4.50;;;21.40;99.90;;;;;;5054768;28;20622;-69
2021/07/26 07:01:51;;;;;;;5.30;4.73;;;21.40;99.90;;;;;;5054847;28;20621;-69
2021/07/26 07:04:17;;;;;;;4.50;4.20;;;21.30;99.90;;;;;;5054525;28;20591;-69
2021/07/26 07:06:44;;;;;;;4.70;4.30;;;21.10;99.90;;;;;;5054747;28;20698;-70
2021/07/26 07:09:10;;;;;;;8.93;4.70;;;21.10;99.90;;;;;;5054293;28;21175;-69
2021/07/26 07:11:36;;;;;;;4.67;3.93;;;21.30;99.90;;;;;;5054346;28;20993;-69
2021/07/26 07:14:03;;;;;;;5.27;4.67;;;21.50;99.90;;;;;;5054926;28;20659;-69
2021/07/26 07:16:29;;;;;;;4.80;4.30;;;21.60;99.90;;;;;;5054733;28;20970;-69
2021/07/26 07:18:56;;;;;;;4.83;4.43;;;21.50;99.90;;;;;;5054496;28;20650;-69
2021/07/26 07:21:27;;;;;;;5.00;4.50;;;21.80;99.90;;;;;;5054479;28;20603;-69
2021/07/26 07:23:56;;;;;;;4.57;4.20;;;22.10;99.90;;;;;;5054566;28;20631;-69
2021/07/26 07:26:24;;;;;;;4.27;3.87;;;21.90;99.90;;;;;;5054296;28;21260;-69
2021/07/26 07:28:51;;;;;;;4.80;4.40;;;21.90;99.90;;;;;;5054046;28;20618;-69
2021/07/26 07:31:22;;;;;;;6.43;4.97;;;21.90;99.90;;;;;;5054543;28;20622;-69
2021/07/26 07:33:50;;;;;;;5.37;4.07;;;22.10;99.90;;;;;;5054693;28;20682;-69
2021/07/26 07:36:16;;;;;;;5.47;3.80;;;22.40;99.90;;;;;;5054474;28;20956;-69
2021/07/26 07:38:42;;;;;;;6.33;4.40;;;22.60;99.90;;;;;;5054068;28;20621;-68
2021/07/26 07:41:08;;;;;;;5.53;4.17;;;22.60;99.90;;;;;;5054263;28;20623;-69
2021/07/26 07:43:35;;;;;;;7.10;4.07;;;22.80;99.90;;;;;;5054285;28;20626;-71
2021/07/26 07:46:01;;;;;;;4.07;3.70;;;22.70;99.90;;;;;;5054067;28;20975;-69
2021/07/26 07:48:29;;;;;;;4.17;3.87;;;22.60;99.90;;;;;;5054287;28;20665;-69
2021/07/26 07:50:56;;;;;;;4.67;4.27;;;22.70;99.90;;;;;;5053965;28;20699;-69
2021/07/26 07:53:23;;;;;;;3.90;3.50;;;22.90;99.90;;;;;;5054032;28;20642;-69
2021/07/26 07:55:51;;;;;;;4.37;3.97;;;22.90;82.10;;;;;;5054111;28;20611;-69
2021/07/26 07:58:19;;;;;;;5.23;4.20;;;23.00;29.60;;;;;;5053819;28;20591;-69
2021/07/26 08:00:50;;;;;;;5.00;4.33;;;23.10;10.50;;;;;;5053882;28;20619;-69
2021/07/26 08:03:17;;;;;;;3.97;3.67;;;23.10;21.40;;;;;;5053530;28;21169;-69
2021/07/26 08:05:44;;;;;;;5.00;4.60;;;23.40;22.80;;;;;;5053469;28;20644;-70
2021/07/26 08:08:10;;;;;;;4.50;4.10;;;23.30;10.30;;;;;;5053495;28;20698;-69
2021/07/26 08:10:36;;;;;;;4.40;4.10;;;23.10;17.00;;;;;;5053721;28;20595;-69
2021/07/26 08:13:03;;;;;;;5.40;4.23;;;23.30;23.50;;;;;;5053648;28;20671;-69
2021/07/26 08:15:30;;;;;;;4.23;3.83;;;23.70;21.10;;;;;;5053672;28;20599;-70
2021/07/26 08:17:56;;;;;;;4.07;3.73;;;24.00;10.60;;;;;;5052680;28;20622;-70
2021/07/26 08:20:22;;;;;;;4.43;4.10;;;23.90;1.00;;;;;;5053060;28;20957;-70
2021/07/26 08:22:49;;;;;;;4.57;4.17;;;24.00;1.00;;;;;;5053101;28;20609;-70
2021/07/26 08:25:16;;;;;;;8.47;3.60;;;24.20;1.00;;;;;;5053484;28;20984;-70
2021/07/26 08:27:55;;;;;;;5.30;4.67;;;23.80;14.30;;;;;;5053566;28;20622;-69
2021/07/26 08:30:31;;;;;;;9.77;4.90;;;23.90;1.00;;;;;;5053379;28;20567;-70
2021/07/26 08:32:58;;;;;;;8.53;4.30;;;23.70;1.00;;;;;;5053207;28;21177;-69
2021/07/26 08:35:25;;;;;;;3.83;3.43;;;23.70;1.00;;;;;;5053483;28;20619;-69
2021/07/26 08:37:52;;;;;;;5.87;3.73;;;23.60;1.00;;;;;;5053269;28;20619;-69
2021/07/26 08:40:20;;;;;;;4.60;3.80;;;23.70;1.00;;;;;;5052940;28;20642;-69
2021/07/26 08:42:46;;;;;;;4.57;3.30;;;24.00;1.00;;;;;;5053212;28;20947;-70
2021/07/26 08:45:13;;;;;;;3.83;3.57;;;24.10;1.00;;;;;;5053290;28;20710;-69
2021/07/26 08:47:42;;;;;;;4.90;4.00;;;24.20;1.00;;;;;;5052959;28;20958;-70
2021/07/26 08:50:10;;;;;;;4.47;4.07;;;24.20;1.00;;;;;;5052614;28;20654;-69
2021/07/26 08:52:42;;;;;;;4.00;3.70;;;24.00;1.00;;;;;;5050055;28;20655;-69
2021/07/26 08:55:13;;;;;;;4.77;4.07;;;24.40;1.00;;;;;;5045992;28;20613;-69
2021/07/26 08:57:41;;;;;;;4.27;3.87;;;24.70;1.00;;;;;;5052278;28;20603;-69
2021/07/26 09:00:09;;;;;;;4.47;4.10;;;24.70;1.00;;;;;;5053120;28;20633;-70
2021/07/26 09:02:35;;;;;;;4.30;4.00;;;24.60;1.00;;;;;;5052852;28;20957;-69
2021/07/26 09:05:02;;;;;;;4.30;3.90;;;25.00;1.00;;;;;;5050815;28;20623;-69
2021/07/26 09:07:28;;;;;;;4.07;3.70;;;24.90;1.00;;;;;;5051288;28;20591;-69
2021/07/26 09:09:55;;;;;;;4.50;4.20;;;24.50;1.00;;;;;;5050903;28;21137;-69
2021/07/26 09:12:33;;;;;;;4.03;3.70;;;24.30;1.00;;;;;;5052985;28;20599;-70
2021/07/26 09:15:00;;;;;;;3.83;3.53;;;24.90;1.00;;;;;;5052871;28;20631;-69
2021/07/26 09:17:41;;;;;;;4.20;3.90;;;24.90;1.00;;;;;;5053002;28;20690;-70
2021/07/26 09:20:09;;;;;;;4.67;3.53;;;25.10;1.00;;;;;;5052766;28;20547;-70
2021/07/26 09:22:37;;;;;;;4.60;4.20;;;24.80;1.00;;;;;;5053044;28;20629;-71
2021/07/26 09:25:28;;;;;;;4.47;4.07;;;24.50;1.00;;;;;;5052732;28;20594;-70
2021/07/26 09:28:08;;;;;;;4.13;3.83;;;24.60;1.00;;;;;;5050110;28;20649;-70
2021/07/26 09:30:51;;;;;;;5.63;4.03;;;24.80;1.00;;;;;;5052674;28;20615;-68
2021/07/26 09:33:19;;;;;;;5.07;4.63;;;25.10;1.00;;;;;;5055040;28;20666;-69
2021/07/26 09:35:49;;;;;;;5.20;3.93;;;25.20;1.00;;;;;;5056698;28;20611;-69
2021/07/26 09:38:24;;;;;;;3.97;3.60;;;24.80;1.00;;;;;;5056682;28;20607;-69
2021/07/26 09:40:50;;;;;;;4.97;4.10;;;25.20;1.00;;;;;;5056125;28;20614;-69
2021/07/26 09:43:22;;;;;;;5.53;3.93;;;25.00;1.00;;;;;;5056636;28;20626;-69
2021/07/26 09:45:50;;;;;;;5.10;4.10;;;24.90;1.00;;;;;;5055772;28;20635;-69
2021/07/26 09:48:18;;;;;;;4.13;3.60;;;25.10;1.00;;;;;;5056420;28;21246;-70
2021/07/26 09:50:46;;;;;;;5.57;3.53;;;25.10;1.00;;;;;;5055958;28;20594;-69
2021/07/26 09:53:17;;;;;;;4.33;3.73;;;25.20;1.00;;;;;;5056054;28;20635;-69
2021/07/26 09:55:46;;;;;;;3.60;3.40;;;25.20;1.00;;;;;;5053182;28;20629;-70
2021/07/26 09:58:15;;;;;;;4.20;3.80;;;25.70;1.00;;;;;;5060770;28;20619;-70
2021/07/26 10:00:44;;;;;;;3.80;3.60;;;25.80;1.00;;;;;;5056053;28;20646;-70
2021/07/26 10:03:12;;;;;;;4.33;3.40;;;26.20;1.00;;;;;;5058029;28;20591;-69
2021/07/26 10:05:40;;;;;;;4.50;4.13;;;25.90;1.00;;;;;;5059149;28;20626;-69
2021/07/26 10:08:08;;;;;;;3.70;3.30;;;25.90;1.00;;;;;;5057275;28;21204;-69
2021/07/26 10:10:37;;;;;;;7.17;3.47;;;25.70;1.00;;;;;;5058552;28;20739;-69
2021/07/26 10:13:04;;;;;;;4.90;4.23;;;25.50;1.00;;;;;;5058561;28;20726;-69
2021/07/26 10:15:32;;;;;;;3.20;2.93;;;25.70;1.00;;;;;;5058308;28;20631;-69
2021/07/26 10:17:59;;;;;;;3.50;3.20;;;26.10;1.00;;;;;;5058145;28;20651;-69
2021/07/26 10:20:28;;;;;;;3.40;3.10;;;25.80;1.00;;;;;;5058228;28;21137;-69
2021/07/26 10:23:11;;;;;;;3.40;3.20;;;26.00;1.00;;;;;;5058660;28;20607;-69
2021/07/26 10:25:56;;;;;;;4.10;3.47;;;25.60;1.00;;;;;;5058190;28;20571;-69
2021/07/26 10:28:55;;;;;;;3.93;3.60;;;25.70;1.00;;;;;;5058726;28;20568;-68
2021/07/26 10:31:30;;;;;;;5.17;3.70;;;26.00;1.00;;;;;;5053458;28;21024;-69
2021/07/26 10:34:04;;;;;;;3.90;3.50;;;26.40;1.00;;;;;;5057668;28;20647;-69
2021/07/26 10:36:42;;;;;;;3.70;3.07;;;26.70;1.00;;;;;;5057795;28;20611;-69
2021/07/26 10:39:12;;;;;;;4.30;3.70;;;26.60;3.40;;;;;;5057867;28;20639;-69
2021/07/26 10:41:45;;;;;;;3.73;3.53;;;26.40;1.00;;;;;;5058284;28;20599;-70
2021/07/26 10:44:17;;;;;;;4.80;3.87;;;26.20;1.00;;;;;;5056052;28;20623;-69
2021/07/26 10:47:06;;;;;;;4.27;3.93;;;26.60;4.60;;;;;;5056931;28;20614;-69
2021/07/26 10:49:42;;;;;;;4.20;3.83;;;26.10;1.00;;;;;;5057170;28;20659;-69
2021/07/26 10:52:29;;;;;;;4.20;3.50;;;26.40;1.00;;;;;;5057712;28;20551;-69
2021/07/26 10:54:58;;;;;;;3.80;3.10;;;26.70;5.00;;;;;;5053171;28;20679;-69
2021/07/26 10:57:43;;;;;;;4.20;3.80;;;26.60;18.70;;;;;;5057846;28;20634;-69
2021/07/26 11:00:15;;;;;;;3.93;3.63;;;26.30;16.30;;;;;;5057593;28;20709;-69
2021/07/26 11:02:44;;;;;;;4.37;4.03;;;26.60;17.80;;;;;;5057481;28;20976;-69
2021/07/26 11:05:29;;;;;;;6.60;3.73;;;26.60;22.70;;;;;;5057878;28;20619;-69
2021/07/26 11:08:13;;;;;;;4.00;3.70;;;26.50;23.00;;;;;;5057279;28;20713;-69
2021/07/26 11:10:50;;;;;;;4.63;3.90;;;27.10;42.20;;;;;;5058802;28;20627;-69
2021/07/26 11:13:17;;;;;;;3.30;3.10;;;27.20;60.10;;;;;;5056758;28;21109;-69
2021/07/26 11:15:46;;;;;;;3.67;2.90;;;26.40;45.00;;;;;;5057067;28;20599;-69
2021/07/26 11:18:28;;;;;;;4.50;4.10;;;26.60;55.50;;;;;;5057107;28;20627;-69
2021/07/26 11:20:57;;;;;;;4.23;3.87;;;26.40;23.00;;;;;;5056978;28;20649;-69
2021/07/26 11:23:46;;;;;;;3.80;3.43;;;26.70;44.90;;;;;;5057266;28;20595;-69
2021/07/26 11:26:27;;;;;;;3.30;3.10;;;26.90;55.40;;;;;;5057391;28;21220;-69
2021/07/26 11:28:56;;;;;;;3.90;3.60;;;27.30;59.50;;;;;;5058152;28;20638;-69
2021/07/26 11:31:25;;;;;;;5.50;4.13;;;27.70;95.20;;;;;;5058820;28;20950;-69
2021/07/26 11:33:52;;;;;;;4.07;3.67;;;28.10;99.90;;;;;;5056216;28;20661;-70
2021/07/26 11:36:20;;;;;;;4.77;3.33;;;28.60;99.90;;;;;;5057508;28;21172;-70
2021/07/26 11:39:07;;;;;;;4.47;4.07;;;27.40;99.90;;;;;;5057455;28;20602;-69
2021/07/26 11:41:34;;;;;;;3.97;3.63;;;26.40;36.60;;;;;;5056937;28;20627;-69
2021/07/26 11:44:01;;;;;;;5.57;3.47;;;26.20;8.60;;;;;;5055554;28;20619;-69
2021/07/26 11:46:28;;;;;;;4.17;3.87;;;25.70;1.00;;;;;;5056346;28;20951;-69
2021/07/26 11:48:57;;;;;;;4.07;3.73;;;25.80;1.00;;;;;;5056756;28;21300;-69
2021/07/26 11:51:30;;;;;;;3.40;3.10;;;25.70;1.00;;;;;;5056753;28;20630;-69
2021/07/26 11:53:58;;;;;;;3.53;3.23;;;25.40;5.00;;;;;;5056233;28;20649;-69
2021/07/26 11:56:28;;;;;;;6.30;4.30;;;25.60;1.00;;;;;;5056642;28;20706;-69
2021/07/26 11:59:12;;;;;;;6.40;2.97;;;25.70;1.00;;;;;;5057008;28;20625;-69
2021/07/26 12:01:43;;;;;;;3.10;2.90;;;26.00;1.00;;;;;;5054923;28;20614;-69
2021/07/26 12:04:09;;;;;;;4.07;3.10;;;26.50;1.00;;;;;;5076597;28;20718;-69
2021/07/26 12:06:56;;;;;;;3.23;3.03;;;27.40;19.50;;;;;;5076771;28;21129;-69
2021/07/26 12:09:23;;;;;;;4.77;3.83;;;27.20;32.40;;;;;;5076060;28;20653;-70
2021/07/26 12:11:50;;;;;;;6.67;3.60;;;27.00;38.00;;;;;;5076495;28;20620;-70
2021/07/26 12:14:26;;;;;;;8.20;4.67;;;27.90;70.50;;;;;;5075356;28;20658;-70
2021/07/26 12:17:05;;;;;;;10.27;4.53;;;27.30;46.20;;;;;;5075564;28;20622;-70
2021/07/26 12:19:34;;;;;;;5.90;3.63;;;26.90;31.30;;;;;;5076748;28;20616;-69
2021/07/26 12:22:18;;;;;;;4.00;3.70;;;26.90;37.00;;;;;;5075723;28;21135;-69
2021/07/26 12:24:58;;;;;;;4.10;3.77;;;28.10;50.50;;;;;;5074519;28;20626;-70
2021/07/26 12:27:27;;;;;;;3.93;3.70;;;28.00;61.00;;;;;;5074796;28;21113;-70
2021/07/26 12:29:55;;;;;;;4.03;3.73;;;27.20;37.70;;;;;;5074482;28;20703;-69
2021/07/26 12:32:21;;;;;;;4.03;3.40;;;26.80;4.20;;;;;;5073742;28;20609;-69
2021/07/26 12:35:17;;;;;;;3.80;3.50;;;26.30;1.00;;;;;;5073707;28;20712;-70
2021/07/26 12:38:02;;;;;;;4.07;3.67;;;26.60;7.20;;;;;;5068153;28;20635;-69
2021/07/26 12:40:29;;;;;;;4.73;4.33;;;26.40;2.30;;;;;;5073797;28;20633;-69
2021/07/26 12:43:05;;;;;;;4.30;4.00;;;26.50;1.00;;;;;;5073797;28;20689;-68
2021/07/26 12:45:31;;;;;;;3.53;3.33;;;25.70;1.00;;;;;;5073569;28;20590;-68
2021/07/26 12:47:59;;;;;;;6.73;4.17;;;25.50;1.00;;;;;;5073203;28;20594;-68
2021/07/26 12:50:29;;;;;;;4.23;3.37;;;25.90;1.00;;;;;;5073507;28;20621;-70
2021/07/26 12:52:55;;;;;;;3.70;3.37;;;26.80;6.20;;;;;;5073713;28;20675;-68
2021/07/26 12:55:22;;;;;;;4.57;4.17;;;27.30;3.20;;;;;;5072899;28;20601;-68
2021/07/26 12:57:48;;;;;;;3.77;3.47;;;27.20;2.50;;;;;;5071823;28;20926;-69
2021/07/26 13:00:15;;;;;;;3.60;3.10;;;26.10;1.00;;;;;;5049085;28;20622;-70